Time;durP1;ratioP1;P1;durP2;ratioP2;P2;SDS_P1;SDS_P2;PMS_P1;PMS_P2;Temp;Humidity;BMP_temperature;BMP_pressure;BME280_temperature;BME280_humidity;BME280_pressure;Samples;Min_cycle;Max_cycle;Signal;HPM_P1;HPM_P2
2022/07/17 00:01:26;;;;;;;;;;;;;;;20.87;60.35;100321.47;4349887;33;20010;-90
2022/07/17 00:03:51;;;;;;;;;;;;;;;20.69;60.35;100326.16;4361017;32;19998;-90
2022/07/17 00:06:16;;;;;;;;;;;;;;;20.71;60.34;100331.34;4373429;32;20018;-90
2022/07/17 00:08:42;;;;;;;;;;;;;;;20.87;60.35;100334.69;4373172;32;20269;-90
2022/07/17 00:11:07;;;;;;;;;;;;;;;20.76;60.34;100331.87;4348841;33;19983;-90
2022/07/17 00:13:32;;;;;;;;;;;;;;;20.79;60.34;100336.97;4348445;33;20010;-90
2022/07/17 00:15:58;;;;;;;;;;;;;;;20.72;60.34;100328.59;4348712;33;20305;-90
2022/07/17 00:18:23;;;;;;;;;;;;;;;20.89;60.35;100338.09;4348795;33;19995;-90
2022/07/17 00:20:48;;;;;;;;;;;;;;;20.94;60.35;100341.28;4348720;33;19998;-90
2022/07/17 00:23:13;;;;;;;;;;;;;;;21.00;60.36;100340.00;4348568;33;20063;-90
2022/07/17 00:25:39;;;;;;;;;;;;;;;20.92;60.36;100345.81;4361219;32;20324;-90
2022/07/17 00:28:04;;;;;;;;;;;;;;;21.07;60.35;100341.34;4348337;33;19980;-90
2022/07/17 00:30:29;;;;;;;;;;;;;;;21.02;60.35;100340.75;4348364;33;20010;-90
2022/07/17 00:32:54;;;;;;;;;;;;;;;20.96;60.35;100343.81;4360978;32;20010;-90
2022/07/17 00:35:20;;;;;;;;;;;;;;;20.82;60.34;100348.22;4349802;33;19983;-90
2022/07/17 00:37:45;;;;;;;;;;;;;;;20.91;60.35;100349.41;4348372;33;19999;-90
2022/07/17 00:40:12;;;;;;;;;;;;;;;21.06;60.35;100355.50;4348355;33;19983;-89
2022/07/17 00:42:40;;;;;;;;;;;;;;;20.80;60.34;100355.37;4360977;32;19988;-91
2022/07/17 00:45:06;;;;;;;;;;;;;;;20.90;60.35;100354.81;4348425;33;19991;-91
2022/07/17 00:47:31;;;;;;;;;;;;;;;20.44;60.32;100371.81;4360919;32;19993;-91
2022/07/17 00:49:57;;;;;;;;;;;;;;;20.48;60.33;100365.41;4348658;33;19995;-90
2022/07/17 00:52:22;;;;;;;;;;;;;;;20.52;60.32;100358.97;4361206;32;20015;-91
2022/07/17 00:54:47;;;;;;;;;;;;;;;20.46;60.33;100362.00;4350061;33;20312;-91
2022/07/17 00:57:13;;;;;;;;;;;;;;;20.42;60.32;100364.94;4349839;33;20296;-91
2022/07/17 00:59:39;;;;;;;;;;;;;;;20.43;60.32;100367.50;4365739;32;19970;-91
2022/07/17 01:02:07;;;;;;;;;;;;;;;20.49;60.33;100372.37;4351929;33;19987;-91
2022/07/17 01:04:32;;;;;;;;;;;;;;;20.35;60.32;100369.75;4348542;33;20664;-90
2022/07/17 01:06:59;;;;;;;;;;;;;;;20.07;60.31;100375.84;4348264;33;19979;-91
2022/07/17 01:09:24;;;;;;;;;;;;;;;20.00;60.29;100384.28;4360596;32;20007;-90
2022/07/17 01:11:49;;;;;;;;;;;;;;;19.85;60.29;100381.59;4348252;33;20015;-91
2022/07/17 01:14:15;;;;;;;;;;;;;;;19.91;60.29;100380.41;4360906;32;20264;-91
2022/07/17 01:16:40;;;;;;;;;;;;;;;19.90;60.29;100384.84;4349215;33;19975;-91
2022/07/17 01:19:05;;;;;;;;;;;;;;;19.87;60.29;100385.03;4348514;33;20019;-91
2022/07/17 01:21:40;;;;;;;;;;;;;;;19.83;60.29;100385.28;4360609;32;20042;-91
2022/07/17 01:24:05;;;;;;;;;;;;;;;19.69;60.28;100386.13;4360585;32;19999;-91
2022/07/17 01:26:31;;;;;;;;;;;;;;;19.75;60.28;100390.19;4360538;32;20242;-91
2022/07/17 01:28:56;;;;;;;;;;;;;;;19.60;60.29;100390.13;4360558;32;19990;-91
2022/07/17 01:31:21;;;;;;;;;;;;;;;19.46;60.28;100378.69;4360506;32;20022;-91
2022/07/17 01:33:46;;;;;;;;;;;;;;;19.53;60.28;100387.94;4360598;32;19995;-91
2022/07/17 01:36:12;;;;;;;;;;;;;;;19.59;60.28;100387.59;4360561;32;19988;-91
2022/07/17 01:38:37;;;;;;;;;;;;;;;19.42;60.26;100396.50;4360472;32;20257;-91
2022/07/17 01:41:02;;;;;;;;;;;;;;;19.50;60.27;100396.03;4348148;33;20340;-91
2022/07/17 01:43:27;;;;;;;;;;;;;;;19.35;60.26;100391.62;4347936;33;20006;-90
2022/07/17 01:45:53;;;;;;;;;;;;;;;19.22;60.27;100402.06;4360461;32;19979;-91
2022/07/17 01:48:25;;;;;;;;;;;;;;;19.08;60.26;100399.34;4348045;33;20027;-91
2022/07/17 01:50:50;;;;;;;;;;;;;;;19.19;60.26;100400.47;4348093;33;20007;-91
2022/07/17 01:53:15;;;;;;;;;;;;;;;19.23;60.26;100409.03;4348170;33;20324;-91
2022/07/17 01:55:41;;;;;;;;;;;;;;;19.25;60.26;100401.88;4360493;32;19979;-91
2022/07/17 01:58:06;;;;;;;;;;;;;;;19.19;60.25;100402.25;4347929;33;20002;-91
2022/07/17 02:00:31;;;;;;;;;;;;;;;19.08;60.26;100405.47;4347821;33;20376;-91
2022/07/17 02:02:56;;;;;;;;;;;;;;;18.92;60.24;100409.91;4360332;32;20047;-90
2022/07/17 02:05:21;;;;;;;;;;;;;;;18.98;60.24;100409.59;4347879;33;19983;-91
2022/07/17 02:07:47;;;;;;;;;;;;;;;18.97;60.24;100408.75;4347846;33;19987;-91
2022/07/17 02:10:13;;;;;;;;;;;;;;;18.95;60.25;100415.88;4348043;33;20359;-91
2022/07/17 02:12:39;;;;;;;;;;;;;;;18.94;60.24;100415.97;4347761;33;20051;-91
2022/07/17 02:15:04;;;;;;;;;;;;;;;18.70;60.23;100426.09;4348222;33;19987;-91
2022/07/17 02:17:29;;;;;;;;;;;;;;;18.58;60.22;100426.72;4347802;33;19979;-91
2022/07/17 02:19:55;;;;;;;;;;;;;;;18.80;60.23;100419.38;4349070;33;20249;-90
2022/07/17 02:22:20;;;;;;;;;;;;;;;18.58;60.22;100424.94;4348029;33;20015;-91
2022/07/17 02:24:45;;;;;;;;;;;;;;;18.65;60.22;100438.66;4347758;33;19979;-91
2022/07/17 02:27:10;;;;;;;;;;;;;;;18.69;60.23;100441.06;4347275;33;19998;-91
2022/07/17 02:29:36;;;;;;;;;;;;;;;18.73;60.22;100440.91;4346828;33;20252;-90
2022/07/17 02:32:01;;;;;;;;;;;;;;;18.78;60.23;100447.63;4348324;33;20054;-91
2022/07/17 02:34:26;;;;;;;;;;;;;;;18.87;60.24;100449.75;4360717;32;19964;-91
2022/07/17 02:36:51;;;;;;;;;;;;;;;18.88;60.24;100446.16;4361301;32;19991;-90
2022/07/17 02:39:16;;;;;;;;;;;;;;;18.73;60.23;100454.09;4362843;32;20017;-90
2022/07/17 02:41:42;;;;;;;;;;;;;;;18.60;60.21;100451.22;4364609;32;20003;-91
2022/07/17 02:44:07;;;;;;;;;;;;;;;18.57;60.22;100446.09;4360060;32;19983;-91
2022/07/17 02:46:32;;;;;;;;;;;;;;;18.12;60.20;100455.50;4359766;32;19994;-91
2022/07/17 02:48:58;;;;;;;;;;;;;;;18.18;60.20;100454.34;4347462;33;20003;-91
2022/07/17 02:51:23;;;;;;;;;;;;;;;18.22;60.21;100459.38;4359830;32;20355;-91
2022/07/17 02:53:48;;;;;;;;;;;;;;;18.12;60.19;100454.66;4359840;32;19991;-92
2022/07/17 02:56:13;;;;;;;;;;;;;;;18.13;60.19;100459.00;4347527;33;20007;-91
2022/07/17 02:58:39;;;;;;;;;;;;;;;18.01;60.19;100455.22;4347468;33;20245;-91
2022/07/17 03:01:04;;;;;;;;;;;;;;;18.19;60.20;100464.78;4347294;33;20379;-91
2022/07/17 03:03:29;;;;;;;;;;;;;;;17.96;60.18;100467.75;4347353;33;19971;-91
2022/07/17 03:05:54;;;;;;;;;;;;;;;17.97;60.19;100464.19;4347334;33;20002;-92
2022/07/17 03:08:20;;;;;;;;;;;;;;;18.15;60.20;100465.03;4347563;33;19998;-91
2022/07/17 03:10:45;;;;;;;;;;;;;;;18.09;60.20;100468.84;4348093;33;20017;-91
2022/07/17 03:13:10;;;;;;;;;;;;;;;18.04;60.19;100469.09;4356975;33;20702;-91
2022/07/17 03:15:35;;;;;;;;;;;;;;;18.07;60.20;100461.03;4376078;32;20008;-92
2022/07/17 03:18:01;;;;;;;;;;;;;;;18.00;60.19;100472.81;4347262;33;20372;-91
2022/07/17 03:20:26;;;;;;;;;;;;;;;17.89;60.18;100477.75;4347342;33;19995;-92
2022/07/17 03:22:51;;;;;;;;;;;;;;;17.72;60.17;100478.59;4347109;33;19984;-91
2022/07/17 03:25:16;;;;;;;;;;;;;;;17.67;60.17;100482.38;4347093;33;19995;-92
2022/07/17 03:27:42;;;;;;;;;;;;;;;17.85;60.18;100489.38;4346854;33;20043;-91
2022/07/17 03:30:07;;;;;;;;;;;;;;;17.90;60.18;100495.28;4347036;33;20019;-91
2022/07/17 03:32:32;;;;;;;;;;;;;;;17.90;60.18;100492.62;4346850;33;20030;-92
2022/07/17 03:34:58;;;;;;;;;;;;;;;17.64;60.17;100507.06;4371707;32;19986;-92
2022/07/17 03:37:23;;;;;;;;;;;;;;;17.78;60.18;100506.44;4347108;33;19996;-92
2022/07/17 03:39:48;;;;;;;;;;;;;;;17.94;60.19;100503.88;4360375;32;20336;-92
2022/07/17 03:42:13;;;;;;;;;;;;;;;17.85;60.18;100507.81;4349032;33;20011;-91
2022/07/17 03:44:39;;;;;;;;;;;;;;;17.97;60.18;100511.59;4348957;33;19987;-92
2022/07/17 03:47:04;;;;;;;;;;;;;;;18.21;60.19;100506.88;4348953;32;20015;-91
2022/07/17 03:49:29;;;;;;;;;;;;;;;18.18;60.20;100510.53;4361563;32;20265;-91
2022/07/17 03:51:54;;;;;;;;;;;;;;;18.28;60.20;100508.28;4349083;33;19998;-91
2022/07/17 03:54:20;;;;;;;;;;;;;;;18.30;60.21;100512.53;4361557;32;19975;-91
2022/07/17 03:56:45;;;;;;;;;;;;;;;18.20;60.20;100513.94;4361750;32;19987;-91
2022/07/17 03:59:10;;;;;;;;;;;;;;;18.34;60.21;100514.09;4349179;33;20054;-91
2022/07/17 04:01:35;;;;;;;;;;;;;;;18.37;60.20;100520.97;4349165;33;20015;-92
2022/07/17 04:04:01;;;;;;;;;;;;;;;18.60;60.21;100523.25;4349299;33;20320;-91
2022/07/17 04:06:26;;;;;;;;;;;;;;;18.47;60.21;100524.84;4349197;33;19991;-91
2022/07/17 04:08:51;;;;;;;;;;;;;;;18.56;60.22;100528.78;4349406;33;20269;-91
2022/07/17 04:11:16;;;;;;;;;;;;;;;18.53;60.22;100531.59;4349503;33;20031;-91
2022/07/17 04:13:42;;;;;;;;;;;;;;;18.58;60.22;100533.03;4374362;32;19975;-91
2022/07/17 04:16:07;;;;;;;;;;;;;;;18.69;60.23;100532.50;4350332;33;20000;-91
2022/07/17 04:18:33;;;;;;;;;;;;;;;18.78;60.24;100531.16;4350755;33;20010;-92
2022/07/17 04:20:59;;;;;;;;;;;;;;;18.84;60.23;100536.97;4354998;33;19983;-91
2022/07/17 04:23:25;;;;;;;;;;;;;;;18.90;60.25;100536.63;4350433;33;20593;-91
2022/07/17 04:25:50;;;;;;;;;;;;;;;18.78;60.24;100533.81;4373872;32;20030;-92
2022/07/17 04:28:15;;;;;;;;;;;;;;;18.99;60.24;100537.94;4373534;32;19980;-91
2022/07/17 04:30:41;;;;;;;;;;;;;;;19.04;60.24;100535.87;4348997;33;20246;-92
2022/07/17 04:33:06;;;;;;;;;;;;;;;18.92;60.24;100540.03;4348789;33;19976;-91
2022/07/17 04:35:31;;;;;;;;;;;;;;;18.93;60.24;100549.69;4348846;33;19992;-91
2022/07/17 04:37:56;;;;;;;;;;;;;;;19.02;60.24;100541.25;4348664;33;20013;-91
2022/07/17 04:40:22;;;;;;;;;;;;;;;18.90;60.25;100552.44;4348795;33;20273;-91
2022/07/17 04:42:47;;;;;;;;;;;;;;;18.96;60.24;100551.28;4373377;32;19983;-91
2022/07/17 04:45:15;;;;;;;;;;;;;;;19.01;60.24;100558.03;4348732;33;20339;-92
2022/07/17 04:47:40;;;;;;;;;;;;;;;19.17;60.25;100552.78;4348281;33;20288;-91
2022/07/17 04:50:06;;;;;;;;;;;;;;;19.06;60.24;100563.03;4361154;32;20015;-91
2022/07/17 04:52:31;;;;;;;;;;;;;;;19.14;60.25;100558.19;4347718;33;20039;-91
2022/07/17 04:54:57;;;;;;;;;;;;;;;19.22;60.26;100566.56;4348638;33;20010;-91
2022/07/17 04:57:22;;;;;;;;;;;;;;;19.35;60.26;100561.44;4348736;33;19999;-92
2022/07/17 04:59:47;;;;;;;;;;;;;;;19.42;60.26;100561.97;4361328;32;19979;-91
2022/07/17 05:02:12;;;;;;;;;;;;;;;19.09;60.25;100565.50;4348675;33;20027;-92
2022/07/17 05:04:38;;;;;;;;;;;;;;;19.38;60.27;100569.19;4361069;32;19983;-91
2022/07/17 05:07:03;;;;;;;;;;;;;;;19.49;60.27;100565.97;4349073;33;20340;-91
2022/07/17 05:09:28;;;;;;;;;;;;;;;19.45;60.26;100572.37;4350448;33;19976;-91
2022/07/17 05:11:53;;;;;;;;;;;;;;;19.44;60.26;100565.38;4365158;32;20466;-91
2022/07/17 05:14:19;;;;;;;;;;;;;;;19.53;60.27;100573.66;4348408;33;20334;-92
2022/07/17 05:16:44;;;;;;;;;;;;;;;19.59;60.27;100575.09;4348712;33;20295;-92
2022/07/17 05:19:09;;;;;;;;;;;;;;;19.63;60.28;100573.97;4348457;33;20006;-92
2022/07/17 05:21:34;;;;;;;;;;;;;;;19.49;60.27;100576.53;4360940;32;20229;-92
2022/07/17 05:24:00;;;;;;;;;;;;;;;19.55;60.27;100573.56;4348291;33;19995;-91
2022/07/17 05:26:25;;;;;;;;;;;;;;;19.57;60.27;100576.97;4348481;33;20003;-91
2022/07/17 05:28:50;;;;;;;;;;;;;;;19.56;60.27;100581.41;4348348;33;20360;-91
2022/07/17 05:31:16;;;;;;;;;;;;;;;19.34;60.26;100580.84;4348397;33;19975;-92
2022/07/17 05:33:41;;;;;;;;;;;;;;;19.39;60.27;100580.59;4348463;33;20297;-92
2022/07/17 05:36:06;;;;;;;;;;;;;;;19.48;60.26;100583.59;4360671;32;19995;-92
2022/07/17 05:38:31;;;;;;;;;;;;;;;19.69;60.29;100581.59;4373024;32;19984;-91
2022/07/17 05:40:57;;;;;;;;;;;;;;;19.89;60.29;100577.81;4348323;33;19998;-90
2022/07/17 05:43:22;;;;;;;;;;;;;;;19.90;60.29;100579.50;4348352;33;19983;-91
2022/07/17 05:45:47;;;;;;;;;;;;;;;19.83;60.28;100572.84;4348461;32;20014;-92
2022/07/17 05:48:12;;;;;;;;;;;;;;;19.88;60.29;100578.75;4360854;32;20317;-91
2022/07/17 05:50:38;;;;;;;;;;;;;;;19.81;60.28;100577.38;4348638;33;20256;-91
2022/07/17 05:53:03;;;;;;;;;;;;;;;19.95;60.29;100574.81;4349100;33;20004;-91
2022/07/17 05:55:28;;;;;;;;;;;;;;;20.08;60.30;100575.78;4362136;32;20003;-92
2022/07/17 05:57:53;;;;;;;;;;;;;;;20.16;60.31;100580.66;4363226;32;19990;-91
2022/07/17 06:00:19;;;;;;;;;;;;;;;20.26;60.31;100579.16;4380246;32;19995;-91
2022/07/17 06:02:45;;;;;;;;;;;;;;;20.19;60.30;100585.75;4355041;33;20009;-92
2022/07/17 06:05:10;;;;;;;;;;;;;;;20.43;60.32;100580.84;4360867;32;20293;-92
2022/07/17 06:07:35;;;;;;;;;;;;;;;20.41;60.32;100585.38;4347905;33;19984;-91
2022/07/17 06:10:01;;;;;;;;;;;;;;;20.46;60.31;100593.88;4347922;33;20277;-91
2022/07/17 06:12:26;;;;;;;;;;;;;;;20.76;60.33;100588.53;4348039;33;20043;-92
2022/07/17 06:14:51;;;;;;;;;;;;;;;20.63;60.33;100584.94;4347947;33;19991;-92
2022/07/17 06:17:16;;;;;;;;;;;;;;;20.90;60.33;100593.00;4360274;32;19998;-91
2022/07/17 06:19:42;;;;;;;;;;;;;;;21.06;60.35;100585.81;4360300;32;20317;-92
2022/07/17 06:22:07;;;;;;;;;;;;;;;21.26;60.36;100597.81;4347839;33;20022;-92
2022/07/17 06:24:32;;;;;;;;;;;;;;;21.22;60.35;100593.63;4360100;32;19983;-91
2022/07/17 06:26:57;;;;;;;;;;;;;;;21.29;60.36;100587.88;4360266;32;19971;-90
2022/07/17 06:29:23;;;;;;;;;;;;;;;21.43;60.37;100594.97;4360250;32;20356;-91
2022/07/17 06:31:48;;;;;;;;;;;;;;;21.45;60.37;100593.91;4347584;33;19998;-91
2022/07/17 06:34:13;;;;;;;;;;;;;;;21.62;60.39;100595.50;4347678;33;20280;-91
2022/07/17 06:36:38;;;;;;;;;;;;;;;21.77;60.40;100593.66;4359951;32;19998;-92
2022/07/17 06:39:04;;;;;;;;;;;;;;;21.84;60.39;100588.78;4360149;32;20027;-91
2022/07/17 06:41:29;;;;;;;;;;;;;;;22.01;60.40;100594.69;4359980;32;19992;-92
2022/07/17 06:43:54;;;;;;;;;;;;;;;22.00;60.40;100586.81;4347444;33;20023;-91
2022/07/17 06:46:19;;;;;;;;;;;;;;;22.28;60.42;100597.34;4347235;33;20011;-91
2022/07/17 06:48:45;;;;;;;;;;;;;;;22.66;60.44;100588.56;4347233;33;20268;-90
2022/07/17 06:51:10;;;;;;;;;;;;;;;22.91;60.45;100596.56;4347337;33;19987;-91
2022/07/17 06:53:35;;;;;;;;;;;;;;;22.94;60.44;100598.16;4346864;33;20011;-91
2022/07/17 06:56:00;;;;;;;;;;;;;;;22.93;60.46;100589.34;4347206;33;19992;-90
2022/07/17 06:58:26;;;;;;;;;;;;;;;23.07;60.45;100596.34;4347346;33;19976;-90
2022/07/17 07:00:51;;;;;;;;;;;;;;;22.69;60.43;100593.66;4347215;33;19999;-91
2022/07/17 07:03:16;;;;;;;;;;;;;;;22.96;60.45;100582.97;4347126;33;20006;-91
2022/07/17 07:05:41;;;;;;;;;;;;;;;23.08;60.45;100591.88;4347503;33;20024;-91
2022/07/17 07:08:07;;;;;;;;;;;;;;;23.14;60.46;100592.28;4347876;33;19984;-89
2022/07/17 07:10:32;;;;;;;;;;;;;;;23.12;60.46;100588.88;4359396;32;20092;-90
2022/07/17 07:12:57;;;;;;;;;;;;;;;23.23;60.46;100583.69;4359281;32;19983;-90
2022/07/17 07:15:24;;;;;;;;;;;;;;;23.41;60.47;100581.50;4348300;33;19983;-91
2022/07/17 07:17:49;;;;;;;;;;;;;;;23.61;60.48;100592.53;4349056;33;19983;-91
2022/07/17 07:20:14;;;;;;;;;;;;;;;23.57;60.49;100587.44;4349011;33;20401;-89
2022/07/17 07:22:39;;;;;;;;;;;;;;;23.65;60.49;100584.19;4349017;33;19994;-92
2022/07/17 07:25:05;;;;;;;;;;;;;;;23.85;60.49;100582.75;4373955;32;20025;-90
2022/07/17 07:27:31;;;;;;;;;;;;;;;23.72;60.49;100587.28;4349059;33;20001;-90
2022/07/17 07:29:56;;;;;;;;;;;;;;;23.63;60.49;100603.88;4375847;32;20002;-90
2022/07/17 07:32:21;;;;;;;;;;;;;;;23.85;60.50;100596.03;4362361;32;20018;-90
2022/07/17 07:34:47;;;;;;;;;;;;;;;23.62;60.49;100592.41;4363556;32;19994;-90
2022/07/17 07:37:12;;;;;;;;;;;;;;;23.73;60.50;100594.28;4364112;32;19976;-91
2022/07/17 07:39:37;;;;;;;;;;;;;;;23.88;60.51;100588.69;4365749;32;20359;-92
2022/07/17 07:42:02;;;;;;;;;;;;;;;23.92;60.50;100592.00;4374419;32;19991;-91
2022/07/17 07:44:28;;;;;;;;;;;;;;;23.88;60.51;100582.50;4350169;33;19980;-90
2022/07/17 07:46:53;;;;;;;;;;;;;;;24.00;60.51;100584.28;4348476;33;20035;-90
2022/07/17 07:49:18;;;;;;;;;;;;;;;23.95;60.50;100583.78;4361535;32;20352;-90
2022/07/17 07:51:43;;;;;;;;;;;;;;;24.02;60.51;100595.66;4348751;33;19995;-90
2022/07/17 07:54:09;;;;;;;;;;;;;;;24.14;60.52;100597.41;4348729;33;20017;-90
2022/07/17 07:56:34;;;;;;;;;;;;;;;24.12;60.52;100580.69;4361142;32;20283;-90
2022/07/17 07:59:00;;;;;;;;;;;;;;;23.99;60.51;100587.06;4348537;33;20013;-90
2022/07/17 08:01:25;;;;;;;;;;;;;;;23.96;60.50;100589.94;4348698;33;20023;-89
2022/07/17 08:03:50;;;;;;;;;;;;;;;24.02;60.51;100595.66;4348577;33;20023;-91
2022/07/17 08:06:16;;;;;;;;;;;;;;;23.98;60.51;100594.19;4348432;33;19975;-90
2022/07/17 08:08:41;;;;;;;;;;;;;;;23.76;60.50;100594.91;4373218;32;20347;-90
2022/07/17 08:11:06;;;;;;;;;;;;;;;24.10;60.51;100592.41;4361054;32;20039;-90
2022/07/17 08:13:32;;;;;;;;;;;;;;;24.44;60.53;100606.72;4348201;33;20046;-90
2022/07/17 08:15:58;;;;;;;;;;;;;;;24.36;60.53;100596.63;4361144;32;20248;-90
2022/07/17 08:18:25;;;;;;;;;;;;;;;24.16;60.51;100606.13;4360838;32;19991;-90
2022/07/17 08:20:50;;;;;;;;;;;;;;;24.17;60.51;100605.16;4348283;33;19995;-89
2022/07/17 08:23:16;;;;;;;;;;;;;;;24.07;60.51;100595.28;4360835;32;20249;-90
2022/07/17 08:25:41;;;;;;;;;;;;;;;24.23;60.52;100600.31;4347517;33;20346;-89
2022/07/17 08:28:06;;;;;;;;;;;;;;;24.38;60.53;100602.72;4348145;33;20074;-89
2022/07/17 08:30:34;;;;;;;;;;;;;;;24.14;60.52;100602.72;4360938;32;19987;-89
2022/07/17 08:32:59;;;;;;;;;;;;;;;24.17;60.51;100602.50;4360574;32;19990;-90
2022/07/17 08:35:25;;;;;;;;;;;;;;;24.39;60.53;100603.56;4349612;33;20034;-89
2022/07/17 08:37:50;;;;;;;;;;;;;;;24.43;60.53;100613.84;4360769;32;20003;-89
2022/07/17 08:40:25;;;;;;;;;;;;;;;24.57;60.53;100606.59;4360638;32;19983;-89
2022/07/17 08:42:51;;;;;;;;;;;;;;;24.84;60.55;100606.28;4360788;32;20033;-90
2022/07/17 08:45:16;;;;;;;;;;;;;;;24.94;60.55;100602.81;4360697;32;20015;-90
2022/07/17 08:47:41;;;;;;;;;;;;;;;25.08;60.56;100596.44;4360661;32;19987;-90
2022/07/17 08:50:07;;;;;;;;;;;;;;;25.43;60.58;100595.44;4360909;32;20341;-89
2022/07/17 08:52:32;;;;;;;;;;;;;;;25.85;60.61;100599.13;4360747;32;20384;-89
2022/07/17 08:54:58;;;;;;;;;;;;;;;25.96;60.61;100597.25;4349677;33;19975;-89
2022/07/17 08:57:23;;;;;;;;;;;;;;;25.91;60.60;100604.78;4360747;32;19991;-89
2022/07/17 08:59:48;;;;;;;;;;;;;;;25.77;60.60;100598.88;4360891;32;20321;-89
2022/07/17 09:02:13;;;;;;;;;;;;;;;25.72;60.60;100599.25;4348378;33;20032;-89
2022/07/17 09:04:39;;;;;;;;;;;;;;;25.68;60.60;100596.00;4361026;32;20281;-88
2022/07/17 09:07:05;;;;;;;;;;;;;;;25.85;60.61;100589.28;4361097;32;20259;-89
2022/07/17 09:09:30;;;;;;;;;;;;;;;26.10;60.62;100595.28;4361062;32;20017;-89
2022/07/17 09:11:58;;;;;;;;;;;;;;;25.98;60.61;100603.31;4360958;32;19971;-88
2022/07/17 09:14:23;;;;;;;;;;;;;;;25.89;60.60;100589.87;4349182;33;19991;-89
2022/07/17 09:16:49;;;;;;;;;;;;;;;26.14;60.61;100594.03;4350064;33;20000;-89
2022/07/17 09:19:31;;;;;;;;;;;;;;;26.34;60.63;100582.56;4353133;33;20082;-88
2022/07/17 09:22:23;;;;;;;;;;;;;;;26.55;60.64;100579.91;4354294;33;19987;-89
2022/07/17 09:24:49;;;;;;;;;;;;;;;26.48;60.64;100582.22;4336042;33;20002;-89
2022/07/17 09:27:23;;;;;;;;;;;;;;;26.33;60.63;100578.16;4360668;32;20011;-90
2022/07/17 09:30:12;;;;;;;;;;;;;;;26.42;60.64;100585.41;4360468;32;20013;-89
2022/07/17 09:32:37;;;;;;;;;;;;;;;26.59;60.64;100574.16;4349342;33;20058;-89
2022/07/17 09:35:03;;;;;;;;;;;;;;;26.59;60.64;100579.50;4349325;33;19971;-90
2022/07/17 09:37:29;;;;;;;;;;;;;;;26.61;60.64;100579.34;4359942;32;20331;-90
2022/07/17 09:39:54;;;;;;;;;;;;;;;26.73;60.65;100562.25;4348043;33;20261;-90
2022/07/17 09:42:22;;;;;;;;;;;;;;;26.37;60.63;100571.63;4360311;32;19972;-90
2022/07/17 09:44:57;;;;;;;;;;;;;;;26.58;60.64;100569.78;4349240;33;19988;-90
2022/07/17 09:47:23;;;;;;;;;;;;;;;26.73;60.65;100566.75;4360186;32;20001;-89
2022/07/17 09:49:48;;;;;;;;;;;;;;;26.61;60.64;100558.00;4360264;32;19995;-90
2022/07/17 09:52:13;;;;;;;;;;;;;;;26.67;60.64;100562.81;4347633;33;20343;-90
2022/07/17 09:54:39;;;;;;;;;;;;;;;26.89;60.66;100557.28;4360330;32;20010;-91
2022/07/17 09:57:04;;;;;;;;;;;;;;;27.13;60.67;100565.00;4347559;33;19983;-90
2022/07/17 09:59:31;;;;;;;;;;;;;;;27.12;60.67;100568.66;4347730;33;20007;-91
2022/07/17 10:01:56;;;;;;;;;;;;;;;27.12;60.67;100557.97;4347822;33;19983;-92
2022/07/17 10:04:21;;;;;;;;;;;;;;;27.24;60.67;100557.88;4347667;33;19987;-91
2022/07/17 10:06:46;;;;;;;;;;;;;;;27.44;60.69;100559.59;4347544;33;20054;-92
2022/07/17 10:09:13;;;;;;;;;;;;;;;27.57;60.69;100562.03;4347761;33;20007;-91
2022/07/17 10:11:39;;;;;;;;;;;;;;;27.37;60.68;100563.81;4360116;32;19994;-91
2022/07/17 10:14:11;;;;;;;;;;;;;;;27.21;60.68;100564.34;4347695;33;19976;-90
2022/07/17 10:16:38;;;;;;;;;;;;;;;27.16;60.67;100575.41;4347657;33;19987;-91
2022/07/17 10:19:03;;;;;;;;;;;;;;;27.36;60.68;100565.63;4359974;32;20805;-91
2022/07/17 10:21:28;;;;;;;;;;;;;;;27.57;60.70;100562.87;4347498;33;20022;-92
2022/07/17 10:23:54;;;;;;;;;;;;;;;27.84;60.71;100564.91;4347402;33;19987;-91
2022/07/17 10:26:32;;;;;;;;;;;;;;;27.83;60.71;100564.03;4359778;32;20284;-91
2022/07/17 10:28:57;;;;;;;;;;;;;;;27.68;60.70;100568.13;4347349;33;20405;-91
2022/07/17 10:31:23;;;;;;;;;;;;;;;27.63;60.69;100546.28;4359966;32;19984;-91
2022/07/17 10:33:58;;;;;;;;;;;;;;;27.63;60.69;100551.63;4359855;32;19975;-91
2022/07/17 10:36:42;;;;;;;;;;;;;;;27.24;60.67;100552.53;4359962;32;20009;-91
2022/07/17 10:39:17;;;;;;;;;;;;;;;27.25;60.67;100556.91;4359920;32;19995;-91
2022/07/17 10:41:43;;;;;;;;;;;;;;;27.64;60.70;100542.63;4347470;33;19971;-91
2022/07/17 10:44:08;;;;;;;;;;;;;;;27.55;60.69;100547.94;4359999;32;19989;-91
2022/07/17 10:46:34;;;;;;;;;;;;;;;27.80;60.71;100539.41;4359872;32;19984;-91
2022/07/17 10:49:01;;;;;;;;;;;;;;;27.73;60.71;100536.47;4359965;32;20013;-91
2022/07/17 10:51:27;;;;;;;;;;;;;;;28.12;60.72;100547.97;4361973;32;19975;-91
2022/07/17 10:53:55;;;;;;;;;;;;;;;27.99;60.72;100544.75;4362567;32;20011;-91
2022/07/17 10:56:20;;;;;;;;;;;;;;;27.82;60.71;100524.91;4363177;32;20047;-90
2022/07/17 10:58:46;;;;;;;;;;;;;;;28.12;60.72;100531.91;4363859;32;19983;-90
2022/07/17 11:01:12;;;;;;;;;;;;;;;28.39;60.73;100531.22;4365290;32;20309;-91
2022/07/17 11:03:40;;;;;;;;;;;;;;;28.58;60.74;100522.25;4358841;33;19964;-90
2022/07/17 11:06:16;;;;;;;;;;;;;;;28.58;60.74;100527.63;4350187;33;19983;-90
2022/07/17 11:08:42;;;;;;;;;;;;;;;28.64;60.75;100524.38;4349002;33;20010;-90
2022/07/17 11:11:07;;;;;;;;;;;;;;;28.74;60.75;100521.66;4348783;33;20015;-90
2022/07/17 11:13:32;;;;;;;;;;;;;;;28.76;60.76;100519.66;4361890;32;20305;-91
2022/07/17 11:15:57;;;;;;;;;;;;;;;28.68;60.76;100509.69;4361669;32;19991;-90
2022/07/17 11:18:23;;;;;;;;;;;;;;;28.62;60.75;100504.06;4349571;33;20797;-91
2022/07/17 11:20:48;;;;;;;;;;;;;;;28.47;60.74;100513.56;4351140;33;20019;-90
2022/07/17 11:23:14;;;;;;;;;;;;;;;28.46;60.74;100517.25;4364364;32;20026;-89
2022/07/17 11:25:39;;;;;;;;;;;;;;;28.72;60.75;100507.56;4353423;33;20261;-91
2022/07/17 11:28:04;;;;;;;;;;;;;;;28.97;60.76;100506.91;4350998;33;20074;-91
2022/07/17 11:30:30;;;;;;;;;;;;;;;28.92;60.77;100498.47;4350541;33;19987;-91
2022/07/17 11:32:57;;;;;;;;;;;;;;;28.92;60.77;100495.81;4362408;32;20007;-91
2022/07/17 11:35:22;;;;;;;;;;;;;;;28.94;60.77;100492.97;4351256;33;20328;-90
2022/07/17 11:37:48;;;;;;;;;;;;;;;29.02;60.77;100503.78;4361175;32;19987;-91
2022/07/17 11:40:13;;;;;;;;;;;;;;;29.15;60.78;100503.44;4348770;33;19975;-90
2022/07/17 11:42:39;;;;;;;;;;;;;;;29.12;60.77;100501.06;4350009;33;19994;-91
2022/07/17 11:45:04;;;;;;;;;;;;;;;29.32;60.79;100495.41;4361198;32;20027;-91
2022/07/17 11:47:29;;;;;;;;;;;;;;;29.58;60.80;100486.66;4348495;33;20346;-91
2022/07/17 11:50:24;;;;;;;;;;;;;;;29.33;60.79;100483.66;4360839;32;20023;-90
2022/07/17 11:52:49;;;;;;;;;;;;;;;29.44;60.79;100473.72;4346393;33;19988;-90
2022/07/17 11:55:15;;;;;;;;;;;;;;;29.29;60.78;100492.19;4348769;33;20434;-91
2022/07/17 11:57:47;;;;;;;;;;;;;;;29.27;60.78;100486.97;4348982;33;20026;-90
2022/07/17 12:00:13;;;;;;;;;;;;;;;29.12;60.77;100483.12;4348666;33;19980;-91
2022/07/17 12:02:39;;;;;;;;;;;;;;;29.07;60.77;100481.88;4349021;33;19975;-91
2022/07/17 12:05:05;;;;;;;;;;;;;;;28.87;60.76;100473.12;4361399;32;19998;-90
2022/07/17 12:07:46;;;;;;;;;;;;;;;28.89;60.76;100482.69;4348729;33;20684;-91
2022/07/17 12:10:13;;;;;;;;;;;;;;;28.66;60.75;100486.72;4348687;33;20693;-90
2022/07/17 12:12:38;;;;;;;;;;;;;;;28.76;60.76;100487.50;4348606;33;19987;-91
2022/07/17 12:15:05;;;;;;;;;;;;;;;28.76;60.76;100482.16;4361257;32;20332;-91
2022/07/17 12:17:37;;;;;;;;;;;;;;;28.85;60.77;100472.38;4361001;32;20067;-91
2022/07/17 12:20:04;;;;;;;;;;;;;;;28.88;60.76;100470.28;4348851;33;20660;-91
2022/07/17 12:22:29;;;;;;;;;;;;;;;28.70;60.75;100477.41;4348656;33;20460;-91
2022/07/17 12:24:55;;;;;;;;;;;;;;;28.68;60.76;100487.41;4348774;33;20291;-90
2022/07/17 12:27:20;;;;;;;;;;;;;;;28.77;60.76;100467.78;4361263;32;20015;-90
2022/07/17 12:29:45;;;;;;;;;;;;;;;28.82;60.76;100465.47;4361881;32;20001;-90